Time;durP1;ratioP1;P1;durP2;ratioP2;P2;SDS_P1;SDS_P2;PMS_P1;PMS_P2;Temp;Humidity;BMP_temperature;BMP_pressure;BME280_temperature;BME280_humidity;BME280_pressure;Samples;Min_cycle;Max_cycle;Signal;HPM_P1;HPM_P2
2023/05/22 00:00:31;;;;;;;26.33;18.58;;;17.30;99.90;;;;;;4942734;28;20098;-74
2023/05/22 00:02:57;;;;;;;25.35;18.92;;;17.30;99.90;;;;;;4945920;28;20134;-75
2023/05/22 00:05:23;;;;;;;23.17;17.95;;;17.30;99.90;;;;;;4943132;29;20408;-75
2023/05/22 00:07:49;;;;;;;24.27;19.48;;;17.30;99.90;;;;;;4960860;28;20043;-75
2023/05/22 00:10:15;;;;;;;26.05;19.85;;;17.30;99.90;;;;;;4945887;29;20036;-75
2023/05/22 00:12:40;;;;;;;22.77;18.00;;;17.30;99.90;;;;;;4945494;29;20393;-75
2023/05/22 00:15:07;;;;;;;24.35;18.67;;;17.30;99.90;;;;;;4947883;29;20134;-74
2023/05/22 00:17:32;;;;;;;24.15;19.73;;;17.30;99.90;;;;;;4945903;29;21661;-75
2023/05/22 00:20:03;;;;;;;25.60;18.92;;;17.30;99.90;;;;;;4942995;29;20047;-75
2023/05/22 00:22:34;;;;;;;26.47;18.43;;;17.30;99.90;;;;;;4949337;28;20063;-77
2023/05/22 00:25:04;;;;;;;25.33;18.65;;;17.30;99.90;;;;;;4946995;29;20798;-76
2023/05/22 00:27:30;;;;;;;24.35;18.17;;;17.30;99.90;;;;;;4928189;29;20047;-76
2023/05/22 00:29:56;;;;;;;23.10;18.50;;;17.30;99.90;;;;;;4947014;28;20114;-76
2023/05/22 00:32:22;;;;;;;22.65;18.33;;;17.30;99.90;;;;;;4960444;28;20051;-76
2023/05/22 00:34:49;;;;;;;27.45;18.48;;;17.30;99.90;;;;;;4946012;28;20055;-76
2023/05/22 00:37:14;;;;;;;24.08;18.30;;;17.30;99.90;;;;;;4945799;29;20043;-76
2023/05/22 00:39:40;;;;;;;24.00;17.65;;;17.30;99.90;;;;;;4942913;28;20079;-75
2023/05/22 00:42:06;;;;;;;22.70;17.60;;;17.30;99.90;;;;;;4940999;29;20047;-75
2023/05/22 00:44:32;;;;;;;20.65;16.70;;;17.30;99.90;;;;;;4944533;28;20054;-76
2023/05/22 00:46:57;;;;;;;20.70;15.90;;;17.30;99.90;;;;;;4945502;28;20154;-76
2023/05/22 00:49:23;;;;;;;19.80;16.27;;;17.30;99.90;;;;;;4946737;29;20396;-75
2023/05/22 00:51:49;;;;;;;22.42;16.95;;;17.30;99.90;;;;;;4944000;29;20060;-75
2023/05/22 00:54:16;;;;;;;26.02;16.48;;;17.30;99.90;;;;;;4943015;28;20093;-76
2023/05/22 00:56:42;;;;;;;22.00;16.55;;;17.30;99.90;;;;;;4946847;29;20051;-75
2023/05/22 00:59:08;;;;;;;19.85;16.70;;;17.30;99.90;;;;;;4945749;29;20121;-75
2023/05/22 01:01:40;;;;;;;20.45;16.73;;;17.30;99.90;;;;;;4945263;28;20126;-75
2023/05/22 01:04:10;;;;;;;23.90;18.52;;;17.20;99.90;;;;;;4941396;28;20085;-76
2023/05/22 01:06:37;;;;;;;21.38;17.58;;;17.30;99.90;;;;;;4929755;29;20401;-76
2023/05/22 01:09:03;;;;;;;23.45;17.73;;;17.30;99.90;;;;;;4943211;29;20122;-75
2023/05/22 01:11:59;;;;;;;24.23;17.50;;;17.20;99.90;;;;;;4945649;28;20053;-75
2023/05/22 01:14:40;;;;;;;21.38;16.92;;;17.30;99.90;;;;;;4945546;29;20122;-76
2023/05/22 01:17:11;;;;;;;23.67;18.13;;;17.20;99.90;;;;;;4936559;29;20051;-75
2023/05/22 01:20:00;;;;;;;22.58;17.45;;;17.20;99.90;;;;;;4940025;29;20059;-76
2023/05/22 01:22:35;;;;;;;24.92;18.73;;;17.20;99.90;;;;;;4947026;28;20062;-75
2023/05/22 01:25:44;;;;;;;23.67;18.17;;;17.20;99.90;;;;;;4948487;29;20054;-75
2023/05/22 01:28:34;;;;;;;27.30;20.00;;;17.20;99.90;;;;;;4930848;29;20051;-76
2023/05/22 01:31:05;;;;;;;22.35;18.10;;;17.20;99.90;;;;;;4928956;29;20055;-76
2023/05/22 01:33:42;;;;;;;26.17;19.20;;;17.20;99.90;;;;;;4946938;29;20069;-76
2023/05/22 01:36:11;;;;;;;22.67;17.50;;;17.20;99.90;;;;;;4945034;28;20059;-76
2023/05/22 01:38:39;;;;;;;27.65;20.73;;;17.20;99.90;;;;;;4945843;29;20035;-75
2023/05/22 01:41:05;;;;;;;27.15;20.10;;;17.20;99.90;;;;;;4947366;28;20043;-76
2023/05/22 01:43:31;;;;;;;25.20;19.83;;;17.20;99.90;;;;;;4939826;28;20043;-76
2023/05/22 01:45:57;;;;;;;25.10;20.52;;;17.10;99.90;;;;;;4937142;28;20082;-76
2023/05/22 01:48:22;;;;;;;25.60;20.55;;;17.20;99.90;;;;;;4935394;28;20128;-76
2023/05/22 01:50:52;;;;;;;25.55;20.08;;;17.20;99.90;;;;;;4937581;28;20050;-75
2023/05/22 01:53:31;;;;;;;25.48;20.42;;;17.20;99.90;;;;;;4961347;28;20063;-75
2023/05/22 01:56:13;;;;;;;24.35;19.90;;;17.10;99.90;;;;;;4925710;29;20055;-76
2023/05/22 01:58:47;;;;;;;24.67;19.77;;;17.10;99.90;;;;;;4946300;29;20079;-76
2023/05/22 02:01:16;;;;;;;27.98;21.45;;;17.10;99.90;;;;;;4942990;29;20047;-75
2023/05/22 02:03:42;;;;;;;28.73;21.30;;;17.10;99.90;;;;;;4943941;28;20047;-75
2023/05/22 02:06:11;;;;;;;27.98;21.00;;;17.10;99.90;;;;;;4944912;28;20039;-75
2023/05/22 02:08:40;;;;;;;29.25;23.13;;;17.10;99.90;;;;;;4936413;28;20047;-75
2023/05/22 02:11:07;;;;;;;32.03;23.60;;;17.00;99.90;;;;;;4939842;29;20059;-75
2023/05/22 02:13:33;;;;;;;30.23;23.88;;;17.00;99.90;;;;;;4944849;29;20411;-75
2023/05/22 02:15:59;;;;;;;32.15;24.80;;;17.00;99.90;;;;;;4945353;29;20051;-75
2023/05/22 02:18:28;;;;;;;31.00;23.92;;;16.90;99.90;;;;;;4945069;28;20049;-75
2023/05/22 02:20:55;;;;;;;30.05;22.67;;;16.90;99.90;;;;;;4950729;28;20055;-75
2023/05/22 02:23:21;;;;;;;28.30;22.67;;;16.90;99.90;;;;;;4941132;29;20063;-75
2023/05/22 02:25:47;;;;;;;33.10;24.23;;;16.90;99.90;;;;;;4944212;29;20051;-75
2023/05/22 02:28:13;;;;;;;31.33;25.38;;;16.90;99.90;;;;;;4946486;29;20581;-75
2023/05/22 02:30:39;;;;;;;32.10;24.92;;;16.80;99.90;;;;;;4943546;29;20054;-76
2023/05/22 02:33:04;;;;;;;31.38;25.95;;;16.80;99.90;;;;;;4925344;29;20047;-75
2023/05/22 02:35:31;;;;;;;32.80;25.00;;;16.70;99.90;;;;;;4938132;28;20050;-76
2023/05/22 02:37:57;;;;;;;31.05;25.73;;;16.70;99.90;;;;;;4924993;29;20055;-75
2023/05/22 02:40:22;;;;;;;33.63;25.45;;;16.70;99.90;;;;;;4940511;28;20759;-75
2023/05/22 02:42:48;;;;;;;30.50;24.83;;;16.70;99.90;;;;;;4946477;28;20040;-76
2023/05/22 02:45:14;;;;;;;30.77;23.80;;;16.70;99.90;;;;;;4943108;29;20054;-76
2023/05/22 02:47:39;;;;;;;29.50;23.83;;;16.70;99.90;;;;;;4945332;29;20047;-75
2023/05/22 02:50:06;;;;;;;33.55;24.40;;;16.70;99.90;;;;;;4944046;28;20448;-75
2023/05/22 02:52:32;;;;;;;30.13;25.13;;;16.70;99.90;;;;;;4945546;29;20077;-75
2023/05/22 02:54:57;;;;;;;28.55;22.75;;;16.70;99.90;;;;;;4944825;29;20539;-75
2023/05/22 02:57:23;;;;;;;30.50;24.85;;;16.70;99.90;;;;;;4941684;28;20043;-75
2023/05/22 02:59:49;;;;;;;35.80;25.60;;;16.70;99.90;;;;;;4943523;28;20047;-76
2023/05/22 03:02:16;;;;;;;30.77;23.40;;;16.70;99.90;;;;;;4925244;28;20053;-74
2023/05/22 03:04:42;;;;;;;34.10;24.65;;;16.70;99.90;;;;;;4946980;28;20050;-76
2023/05/22 03:07:07;;;;;;;28.77;23.55;;;16.70;99.90;;;;;;4949876;28;20051;-75
2023/05/22 03:09:33;;;;;;;31.85;24.38;;;16.70;99.90;;;;;;4952462;28;20053;-75
2023/05/22 03:11:59;;;;;;;31.30;23.80;;;16.60;99.90;;;;;;4948644;29;20055;-75
2023/05/22 03:14:25;;;;;;;29.67;22.45;;;16.60;99.90;;;;;;4947134;29;20452;-75
2023/05/22 03:16:53;;;;;;;29.98;23.42;;;16.60;99.90;;;;;;4948239;29;20042;-74
2023/05/22 03:19:19;;;;;;;35.25;24.92;;;16.60;99.90;;;;;;4932082;29;20381;-75
2023/05/22 03:21:45;;;;;;;31.73;24.58;;;16.60;99.90;;;;;;4931479;29;20055;-75
2023/05/22 03:24:13;;;;;;;31.20;22.88;;;16.60;99.90;;;;;;4950821;28;20091;-75
2023/05/22 03:26:39;;;;;;;34.92;25.25;;;16.60;99.90;;;;;;4965397;28;20126;-75
2023/05/22 03:29:05;;;;;;;30.27;24.05;;;16.70;99.90;;;;;;4944321;29;20226;-75
2023/05/22 03:31:32;;;;;;;31.95;24.65;;;16.60;99.90;;;;;;4946970;29;20707;-75
2023/05/22 03:33:58;;;;;;;32.00;24.23;;;16.60;99.90;;;;;;4949824;29;20070;-75
2023/05/22 03:36:24;;;;;;;29.83;24.30;;;16.60;99.90;;;;;;4948180;28;20086;-75
2023/05/22 03:38:51;;;;;;;29.48;23.77;;;16.60;99.90;;;;;;4953664;28;20138;-75
2023/05/22 03:41:17;;;;;;;31.30;25.55;;;16.60;99.90;;;;;;4942827;29;20039;-75
2023/05/22 03:43:43;;;;;;;32.67;24.85;;;16.50;99.90;;;;;;4946642;29;20177;-75
2023/05/22 03:46:10;;;;;;;29.00;23.67;;;16.70;99.90;;;;;;4961712;28;20138;-75
2023/05/22 03:48:35;;;;;;;31.73;24.35;;;16.60;99.90;;;;;;4948345;29;20047;-75
2023/05/22 03:51:01;;;;;;;33.72;26.08;;;16.60;99.90;;;;;;4964270;28;20431;-74
2023/05/22 03:53:28;;;;;;;30.30;23.98;;;16.60;99.90;;;;;;4944421;28;20074;-75
2023/05/22 03:55:53;;;;;;;32.78;25.70;;;16.60;99.90;;;;;;4940049;29;20075;-75
2023/05/22 03:58:19;;;;;;;30.58;24.02;;;16.60;99.90;;;;;;4943746;28;20086;-76
2023/05/22 04:00:45;;;;;;;33.05;25.83;;;16.50;99.90;;;;;;4933493;29;20047;-75
2023/05/22 04:03:18;;;;;;;36.83;24.63;;;16.50;99.90;;;;;;4929289;29;20090;-75
2023/05/22 04:05:44;;;;;;;36.17;25.52;;;16.50;99.90;;;;;;4925352;29;20155;-75
2023/05/22 04:08:10;;;;;;;34.88;27.00;;;16.50;99.90;;;;;;4946038;28;20143;-76
2023/05/22 04:10:37;;;;;;;34.92;26.83;;;16.50;99.90;;;;;;4936919;28;20126;-76
2023/05/22 04:13:03;;;;;;;36.90;27.00;;;16.40;99.90;;;;;;4936797;29;20050;-76
2023/05/22 04:15:32;;;;;;;34.97;25.52;;;16.40;99.90;;;;;;4925844;29;20572;-75
2023/05/22 04:17:59;;;;;;;33.55;26.20;;;16.40;99.90;;;;;;4948066;29;20122;-75
2023/05/22 04:20:25;;;;;;;34.63;26.00;;;16.40;99.90;;;;;;4948506;28;20047;-75
2023/05/22 04:22:53;;;;;;;38.33;25.92;;;16.30;99.90;;;;;;4952743;28;20457;-74
2023/05/22 04:25:19;;;;;;;36.85;27.00;;;16.30;99.90;;;;;;4964031;28;20525;-76
2023/05/22 04:27:46;;;;;;;37.70;27.00;;;16.30;99.90;;;;;;4947866;29;20504;-76
2023/05/22 04:30:13;;;;;;;35.80;27.50;;;16.30;99.90;;;;;;4941815;28;20097;-76
2023/05/22 04:32:39;;;;;;;35.15;25.95;;;16.30;99.90;;;;;;4940208;29;20094;-75
2023/05/22 04:35:05;;;;;;;33.22;26.00;;;16.30;99.90;;;;;;4945999;29;20122;-75
2023/05/22 04:37:31;;;;;;;38.65;26.65;;;16.30;99.90;;;;;;4938467;28;20114;-76
2023/05/22 04:40:03;;;;;;;34.55;26.27;;;16.30;99.90;;;;;;4943931;29;20071;-76
2023/05/22 04:42:29;;;;;;;34.85;26.27;;;16.50;99.90;;;;;;4943716;28;20071;-75
2023/05/22 04:44:56;;;;;;;36.10;25.85;;;16.30;99.90;;;;;;4950311;28;20262;-75
2023/05/22 04:47:22;;;;;;;36.03;26.25;;;16.30;99.90;;;;;;4943919;29;20456;-75
2023/05/22 04:49:48;;;;;;;34.70;25.02;;;16.30;99.90;;;;;;4942783;28;20050;-76
2023/05/22 04:52:14;;;;;;;34.17;24.35;;;16.30;99.90;;;;;;4946124;28;20106;-75
2023/05/22 04:54:42;;;;;;;30.30;24.00;;;16.30;99.90;;;;;;4945817;28;20063;-76
2023/05/22 04:57:07;;;;;;;34.28;24.25;;;16.30;99.90;;;;;;4941600;28;20118;-75
2023/05/22 04:59:36;;;;;;;35.00;22.67;;;16.30;99.90;;;;;;4938330;29;20166;-75
2023/05/22 05:02:06;;;;;;;32.63;23.15;;;16.30;99.90;;;;;;4934610;28;20106;-75
2023/05/22 05:04:32;;;;;;;31.52;22.90;;;16.30;99.90;;;;;;4956664;28;20135;-75
2023/05/22 05:06:58;;;;;;;31.88;22.65;;;16.30;99.90;;;;;;4936937;28;20051;-75
2023/05/22 05:09:24;;;;;;;31.60;22.10;;;16.30;99.90;;;;;;4943686;28;20070;-75
2023/05/22 05:11:51;;;;;;;29.23;21.27;;;16.30;99.90;;;;;;4942840;29;20043;-75
2023/05/22 05:14:17;;;;;;;28.55;21.85;;;16.30;99.90;;;;;;4942121;28;20039;-75
2023/05/22 05:16:43;;;;;;;28.63;22.50;;;16.30;99.90;;;;;;4941653;29;20094;-75
2023/05/22 05:19:08;;;;;;;29.17;21.15;;;16.30;99.90;;;;;;4944265;28;20047;-75
2023/05/22 05:21:34;;;;;;;26.17;20.98;;;16.40;99.90;;;;;;4944802;28;20751;-75
2023/05/22 05:24:00;;;;;;;29.35;20.77;;;16.40;99.90;;;;;;4922981;29;20046;-75
2023/05/22 05:26:26;;;;;;;29.40;21.80;;;16.40;99.90;;;;;;4935218;29;20566;-75
2023/05/22 05:28:52;;;;;;;28.95;21.30;;;16.40;99.90;;;;;;4923769;29;20061;-75
2023/05/22 05:31:19;;;;;;;30.70;20.17;;;16.40;99.90;;;;;;4943231;28;20451;-76
2023/05/22 05:33:45;;;;;;;29.85;21.40;;;16.40;99.90;;;;;;4930150;29;20059;-76
2023/05/22 05:36:11;;;;;;;29.67;20.33;;;16.40;99.90;;;;;;4927250;29;21182;-76
2023/05/22 05:38:37;;;;;;;30.88;22.33;;;16.40;99.90;;;;;;4945747;29;20310;-76
2023/05/22 05:41:03;;;;;;;34.80;20.95;;;16.40;99.90;;;;;;4944555;28;20078;-76
2023/05/22 05:43:29;;;;;;;28.17;20.58;;;16.40;99.90;;;;;;4954819;28;20047;-76
2023/05/22 05:45:55;;;;;;;27.00;18.38;;;16.40;99.90;;;;;;4955759;28;20058;-76
2023/05/22 05:48:21;;;;;;;27.40;15.20;;;16.40;99.90;;;;;;4938999;28;20139;-76
2023/05/22 05:50:47;;;;;;;24.83;14.43;;;16.40;99.90;;;;;;4919394;28;20097;-76
2023/05/22 05:53:13;;;;;;;21.70;13.85;;;16.30;99.90;;;;;;4941545;28;20058;-76
2023/05/22 05:55:39;;;;;;;27.33;14.52;;;16.30;99.90;;;;;;4942133;28;20038;-77
2023/05/22 05:58:05;;;;;;;20.60;12.73;;;16.40;99.90;;;;;;4944019;28;20068;-77
2023/05/22 06:00:31;;;;;;;24.85;12.45;;;16.30;99.90;;;;;;4942194;28;20036;-76
2023/05/22 06:02:56;;;;;;;26.45;11.82;;;16.30;99.90;;;;;;4940758;28;20143;-76
2023/05/22 06:05:22;;;;;;;23.83;11.20;;;16.30;99.90;;;;;;4938234;28;22236;-76
2023/05/22 06:07:48;;;;;;;21.15;11.55;;;16.30;99.90;;;;;;4939713;28;20082;-77
2023/05/22 06:10:14;;;;;;;29.02;13.23;;;16.30;99.90;;;;;;4945211;28;20054;-76
2023/05/22 06:12:40;;;;;;;30.27;13.18;;;16.30;99.90;;;;;;4958688;28;20043;-76
2023/05/22 06:15:07;;;;;;;31.48;13.95;;;16.30;99.90;;;;;;4942988;28;20118;-76
2023/05/22 06:17:33;;;;;;;25.92;14.02;;;16.30;99.90;;;;;;4943410;28;20102;-75
2023/05/22 06:19:59;;;;;;;26.25;15.38;;;16.20;99.90;;;;;;4945297;28;20038;-76
2023/05/22 06:22:25;;;;;;;24.42;14.38;;;16.30;99.90;;;;;;4941657;28;20082;-77
2023/05/22 06:24:54;;;;;;;22.30;13.77;;;16.20;99.90;;;;;;4943740;28;20919;-76
2023/05/22 06:27:23;;;;;;;25.83;12.27;;;16.30;99.90;;;;;;4943345;28;20496;-77
2023/05/22 06:29:50;;;;;;;24.15;12.40;;;16.20;99.90;;;;;;4940740;28;20122;-76
2023/05/22 06:32:16;;;;;;;30.67;11.77;;;16.20;99.90;;;;;;4943495;28;20058;-78
2023/05/22 06:34:43;;;;;;;27.70;11.30;;;16.10;99.90;;;;;;4948754;28;20059;-76
2023/05/22 06:37:12;;;;;;;29.10;11.05;;;16.10;99.90;;;;;;4962604;28;20171;-76
2023/05/22 06:39:39;;;;;;;23.85;11.30;;;16.10;99.90;;;;;;4962889;28;20054;-77
2023/05/22 06:42:05;;;;;;;22.20;9.68;;;16.10;99.90;;;;;;4948023;28;20046;-77
2023/05/22 06:44:31;;;;;;;21.90;10.02;;;16.00;99.90;;;;;;4944534;28;20057;-77
2023/05/22 06:46:56;;;;;;;23.88;9.95;;;16.00;99.90;;;;;;4945621;28;20059;-76
2023/05/22 06:49:22;;;;;;;27.30;9.75;;;16.00;99.90;;;;;;4946534;28;20091;-76
2023/05/22 06:51:48;;;;;;;26.75;10.02;;;16.00;99.90;;;;;;4948129;28;20050;-75
2023/05/22 06:54:14;;;;;;;21.75;9.23;;;15.90;99.90;;;;;;4961714;28;20047;-76
2023/05/22 06:56:40;;;;;;;25.02;10.18;;;16.10;99.90;;;;;;4941173;28;20606;-76
2023/05/22 06:59:06;;;;;;;33.33;9.77;;;15.90;99.90;;;;;;4943007;28;20789;-76
2023/05/22 07:01:32;;;;;;;21.15;8.13;;;15.90;99.90;;;;;;4944193;28;20055;-76
2023/05/22 07:04:03;;;;;;;19.58;8.57;;;15.90;99.90;;;;;;4945571;28;20047;-77
2023/05/22 07:06:37;;;;;;;19.13;8.63;;;15.90;99.90;;;;;;4942914;28;20125;-76
2023/05/22 07:09:04;;;;;;;23.65;9.10;;;15.90;99.90;;;;;;4957812;28;20134;-76
2023/05/22 07:11:31;;;;;;;24.60;9.52;;;16.00;99.90;;;;;;4941192;28;20043;-76
2023/05/22 07:13:56;;;;;;;29.42;9.90;;;15.90;99.90;;;;;;4941724;28;20055;-78
2023/05/22 07:16:22;;;;;;;24.05;8.35;;;15.90;99.90;;;;;;4945123;28;20054;-76
2023/05/22 07:18:48;;;;;;;22.98;8.90;;;15.90;99.90;;;;;;4927285;28;20051;-78
2023/05/22 07:21:14;;;;;;;21.48;8.35;;;15.90;99.90;;;;;;4929814;28;20154;-77
2023/05/22 07:23:40;;;;;;;17.58;7.95;;;15.90;99.90;;;;;;4944662;28;20423;-77
2023/05/22 07:26:06;;;;;;;14.40;7.40;;;15.90;99.90;;;;;;4947695;28;20071;-77
2023/05/22 07:28:32;;;;;;;20.38;7.60;;;16.00;99.90;;;;;;4959040;28;20073;-78
2023/05/22 07:30:58;;;;;;;13.23;7.50;;;16.00;99.90;;;;;;4944049;28;20047;-75
2023/05/22 07:33:24;;;;;;;13.75;6.68;;;16.00;99.90;;;;;;4960963;28;20603;-77
2023/05/22 07:35:50;;;;;;;16.10;7.65;;;16.00;99.90;;;;;;4940184;28;20043;-76
2023/05/22 07:38:16;;;;;;;15.48;6.97;;;16.00;99.90;;;;;;4943144;28;20132;-74
2023/05/22 07:40:42;;;;;;;16.90;6.60;;;16.10;99.90;;;;;;4922641;28;20039;-76
2023/05/22 07:43:08;;;;;;;13.20;6.38;;;16.20;99.90;;;;;;4937206;28;20114;-77
2023/05/22 07:45:34;;;;;;;11.93;6.63;;;16.10;99.90;;;;;;4942561;28;20043;-77
2023/05/22 07:48:02;;;;;;;13.75;6.75;;;16.10;99.90;;;;;;4959106;28;20111;-77
2023/05/22 07:50:29;;;;;;;16.42;7.72;;;16.10;99.90;;;;;;4941175;28;20047;-78
2023/05/22 07:52:55;;;;;;;19.70;6.72;;;16.10;99.90;;;;;;4939130;28;20503;-77
2023/05/22 07:55:21;;;;;;;15.32;6.50;;;16.00;99.90;;;;;;4929254;28;20445;-77
2023/05/22 07:57:47;;;;;;;15.50;7.28;;;16.00;99.90;;;;;;4941330;28;20222;-77
2023/05/22 08:00:13;;;;;;;14.88;6.65;;;16.10;99.90;;;;;;4942318;28;20134;-77
2023/05/22 08:02:40;;;;;;;16.63;7.53;;;16.10;99.90;;;;;;4943014;28;20070;-78
2023/05/22 08:05:06;;;;;;;13.55;6.88;;;16.10;99.90;;;;;;4958081;28;20058;-78
2023/05/22 08:07:32;;;;;;;17.00;7.35;;;16.10;99.90;;;;;;4941512;28;20039;-79
2023/05/22 08:09:58;;;;;;;15.45;7.18;;;16.10;99.90;;;;;;4942212;28;20562;-79
2023/05/22 08:12:24;;;;;;;15.95;7.20;;;16.10;99.90;;;;;;4942368;28;20077;-80
2023/05/22 08:14:50;;;;;;;14.27;7.38;;;16.10;99.90;;;;;;4951902;28;20054;-77
2023/05/22 08:17:15;;;;;;;17.58;7.95;;;16.10;99.90;;;;;;4920115;28;20115;-78
2023/05/22 08:19:41;;;;;;;14.73;7.28;;;16.10;99.90;;;;;;4944602;28;20043;-76
2023/05/22 08:22:07;;;;;;;16.30;7.28;;;16.10;99.90;;;;;;4946232;28;20055;-76
2023/05/22 08:24:32;;;;;;;20.17;8.00;;;16.10;99.90;;;;;;4941282;28;20043;-77
2023/05/22 08:26:59;;;;;;;17.40;8.07;;;16.10;99.90;;;;;;4944304;28;20125;-76
2023/05/22 08:29:25;;;;;;;15.85;7.80;;;16.00;99.90;;;;;;4947134;28;20042;-77
2023/05/22 08:31:55;;;;;;;23.40;9.02;;;16.10;99.90;;;;;;4945361;28;20043;-75
2023/05/22 08:34:21;;;;;;;19.03;8.03;;;16.10;99.90;;;;;;4958324;28;20330;-75
2023/05/22 08:36:48;;;;;;;20.15;8.05;;;16.00;99.90;;;;;;4943278;28;20138;-76
2023/05/22 08:39:15;;;;;;;15.35;7.50;;;16.00;99.90;;;;;;4959510;28;20142;-77
2023/05/22 08:41:43;;;;;;;16.48;7.90;;;16.10;99.90;;;;;;4945255;28;20062;-76
2023/05/22 08:44:12;;;;;;;16.20;8.80;;;16.00;99.90;;;;;;4943140;28;20051;-77
2023/05/22 08:46:44;;;;;;;20.25;8.60;;;16.00;99.90;;;;;;4943686;28;20047;-76
2023/05/22 08:49:10;;;;;;;16.25;8.13;;;16.00;99.90;;;;;;4943904;28;20512;-76
2023/05/22 08:51:41;;;;;;;14.88;7.88;;;16.00;99.90;;;;;;4944522;28;20043;-77
2023/05/22 08:54:08;;;;;;;20.88;7.90;;;16.10;99.90;;;;;;4930058;28;20047;-77
2023/05/22 08:56:35;;;;;;;16.70;8.25;;;16.00;99.90;;;;;;4944216;28;20405;-77
2023/05/22 08:59:02;;;;;;;19.48;8.48;;;16.10;99.90;;;;;;4943359;28;20420;-78
2023/05/22 09:01:29;;;;;;;17.38;8.85;;;16.10;99.90;;;;;;4946101;28;20149;-77
2023/05/22 09:03:59;;;;;;;17.35;8.45;;;16.10;99.90;;;;;;4947243;28;20043;-78
2023/05/22 09:06:27;;;;;;;17.42;8.77;;;16.10;99.90;;;;;;4943978;28;20118;-74
2023/05/22 09:08:53;;;;;;;17.20;8.23;;;16.10;99.90;;;;;;4944463;28;20118;-74
2023/05/22 09:11:18;;;;;;;15.27;8.27;;;16.10;99.90;;;;;;4957969;28;20031;-78
2023/05/22 09:13:44;;;;;;;19.60;10.73;;;16.10;99.90;;;;;;4942154;28;20503;-75
2023/05/22 09:16:11;;;;;;;20.48;8.73;;;16.20;99.90;;;;;;4945716;28;20051;-79
2023/05/22 09:18:38;;;;;;;17.42;9.13;;;16.20;99.90;;;;;;4944116;28;20055;-76
2023/05/22 09:21:08;;;;;;;14.65;8.32;;;16.10;99.90;;;;;;4957881;28;20753;-76
2023/05/22 09:23:34;;;;;;;17.48;8.80;;;16.10;99.90;;;;;;4945425;28;20475;-75
2023/05/22 09:26:01;;;;;;;20.10;8.90;;;16.20;99.90;;;;;;4961734;28;20047;-74
2023/05/22 09:28:34;;;;;;;22.80;9.13;;;16.20;99.90;;;;;;4924663;28;20500;-77
2023/05/22 09:31:00;;;;;;;18.00;9.15;;;16.30;99.90;;;;;;4942521;28;20047;-76
2023/05/22 09:33:27;;;;;;;18.42;9.50;;;16.30;99.90;;;;;;4959526;28;20055;-75
2023/05/22 09:35:53;;;;;;;17.48;9.65;;;16.40;99.90;;;;;;4944456;28;20053;-78
2023/05/22 09:38:22;;;;;;;17.10;9.55;;;16.50;99.90;;;;;;4942030;28;21410;-75
2023/05/22 09:40:55;;;;;;;17.48;9.82;;;16.50;99.90;;;;;;4947420;28;20063;-76
2023/05/22 09:43:24;;;;;;;23.38;9.15;;;16.60;99.90;;;;;;4942799;28;20126;-77
2023/05/22 09:45:55;;;;;;;18.95;9.73;;;16.70;99.90;;;;;;4943862;28;20087;-76
2023/05/22 09:48:20;;;;;;;;;;;16.70;99.90;;;;;;4947593;28;20051;-77
2023/05/22 09:50:47;;;;;;;20.80;9.45;;;16.70;99.90;;;;;;4944327;28;20008;-76
2023/05/22 09:53:15;;;;;;;19.05;10.00;;;16.80;99.90;;;;;;4946441;28;20117;-77
2023/05/22 09:55:44;;;;;;;17.35;9.88;;;16.90;99.90;;;;;;4930829;28;20746;-77
2023/05/22 09:58:12;;;;;;;19.77;10.45;;;17.00;99.90;;;;;;4943222;28;20047;-76
2023/05/22 10:00:39;;;;;;;16.83;9.73;;;17.10;99.90;;;;;;4942332;28;20431;-75
2023/05/22 10:03:10;;;;;;;19.52;10.02;;;17.20;99.90;;;;;;4942859;28;20054;-77
2023/05/22 10:05:39;;;;;;;17.60;10.05;;;17.20;99.90;;;;;;4945511;28;20066;-75
2023/05/22 10:08:10;;;;;;;18.50;11.25;;;17.30;99.90;;;;;;4926339;28;20058;-75
2023/05/22 10:10:37;;;;;;;;;;;17.30;99.90;;;;;;4944551;28;20047;-78
2023/05/22 10:13:04;;;;;;;17.45;10.43;;;17.40;99.90;;;;;;4947103;28;19984;-77
2023/05/22 10:15:33;;;;;;;23.77;11.07;;;17.50;99.90;;;;;;4944368;28;20058;-75
2023/05/22 10:18:00;;;;;;;19.08;11.05;;;17.50;99.90;;;;;;4944329;28;20059;-75
2023/05/22 10:20:28;;;;;;;18.73;11.65;;;17.60;99.90;;;;;;4944732;28;20055;-77
2023/05/22 10:22:54;;;;;;;21.35;11.95;;;17.70;99.90;;;;;;4960008;28;20039;-75
2023/05/22 10:25:21;;;;;;;19.13;11.15;;;17.80;99.90;;;;;;4941536;28;20062;-76
2023/05/22 10:27:47;;;;;;;17.65;11.27;;;17.80;99.90;;;;;;4941650;28;20130;-76
2023/05/22 10:30:41;;;;;;;19.48;11.10;;;18.00;99.90;;;;;;4943346;28;20617;-77
2023/05/22 10:33:15;;;;;;;19.33;11.57;;;18.00;99.90;;;;;;4944609;28;20110;-76
2023/05/22 10:35:54;;;;;;;17.05;10.70;;;18.00;99.90;;;;;;4958786;28;20154;-75
2023/05/22 10:38:57;;;;;;;19.95;11.63;;;18.10;99.90;;;;;;4941488;28;20451;-74
2023/05/22 10:41:24;;;;;;;19.67;11.45;;;18.20;99.90;;;;;;4944489;28;20047;-76
2023/05/22 10:43:50;;;;;;;20.60;11.00;;;18.30;99.90;;;;;;4941374;28;20055;-76
2023/05/22 10:46:17;;;;;;;24.20;12.57;;;18.30;99.90;;;;;;4941057;28;20051;-76
2023/05/22 10:48:54;;;;;;;21.90;11.02;;;18.40;99.90;;;;;;4955861;28;20043;-76
2023/05/22 10:51:23;;;;;;;23.35;12.10;;;18.50;99.90;;;;;;4941236;28;20049;-76
2023/05/22 10:54:01;;;;;;;18.42;11.50;;;18.60;99.90;;;;;;4942120;28;20507;-77
2023/05/22 10:56:37;;;;;;;20.35;11.32;;;18.70;99.90;;;;;;4957364;28;20059;-76
2023/05/22 10:59:04;;;;;;;24.58;12.18;;;18.80;99.90;;;;;;4941507;28;20618;-76
2023/05/22 11:01:35;;;;;;;20.90;11.07;;;18.90;99.90;;;;;;4943019;28;20062;-76
2023/05/22 11:04:10;;;;;;;25.65;11.30;;;19.10;99.90;;;;;;4943127;28;20039;-77
2023/05/22 11:06:58;;;;;;;19.77;11.57;;;19.20;99.90;;;;;;4942702;28;20054;-76
2023/05/22 11:09:30;;;;;;;20.88;11.57;;;19.30;99.90;;;;;;4957411;28;20058;-79
2023/05/22 11:12:27;;;;;;;21.83;11.90;;;19.30;99.90;;;;;;4926690;28;20791;-77
2023/05/22 11:15:01;;;;;;;26.30;11.77;;;19.40;99.90;;;;;;4942500;28;20066;-76
2023/05/22 11:17:29;;;;;;;20.63;12.38;;;19.40;99.90;;;;;;4944115;28;20134;-77
2023/05/22 11:20:03;;;;;;;21.65;12.07;;;19.50;99.90;;;;;;4948129;28;20046;-75
2023/05/22 11:22:39;;;;;;;22.27;13.73;;;19.60;99.90;;;;;;4965103;28;20726;-76
2023/05/22 11:25:19;;;;;;;22.42;13.18;;;19.60;99.90;;;;;;4946769;28;20404;-76
2023/05/22 11:27:47;;;;;;;19.80;11.95;;;19.70;99.90;;;;;;4926942;28;20048;-76
2023/05/22 11:30:14;;;;;;;22.88;12.85;;;19.80;99.90;;;;;;4958401;28;20106;-76
2023/05/22 11:32:43;;;;;;;22.70;12.82;;;19.80;99.90;;;;;;4942845;28;20059;-75
2023/05/22 11:35:22;;;;;;;19.45;11.75;;;19.80;99.90;;;;;;4958569;28;20047;-76
2023/05/22 11:37:49;;;;;;;23.52;12.88;;;19.90;99.90;;;;;;4945842;28;20587;-75
2023/05/22 11:40:24;;;;;;;20.17;12.23;;;19.90;99.90;;;;;;4946213;28;20993;-75
2023/05/22 11:42:50;;;;;;;22.52;13.13;;;20.00;99.90;;;;;;4945555;28;20047;-76
2023/05/22 11:45:16;;;;;;;20.25;13.15;;;20.00;99.90;;;;;;4947284;28;20050;-76
2023/05/22 11:47:43;;;;;;;23.48;13.50;;;20.10;99.90;;;;;;4943576;28;20058;-75
2023/05/22 11:50:11;;;;;;;21.15;11.75;;;20.00;99.90;;;;;;4945443;28;20039;-76
2023/05/22 11:52:39;;;;;;;20.67;12.95;;;20.00;99.90;;;;;;4944675;28;20138;-77
2023/05/22 11:55:06;;;;;;;21.83;13.13;;;20.10;99.90;;;;;;4958646;28;20051;-76
2023/05/22 11:57:33;;;;;;;20.05;12.50;;;20.20;99.90;;;;;;4945953;28;20118;-76
2023/05/22 12:00:05;;;;;;;19.25;12.02;;;20.20;99.90;;;;;;4946495;28;20126;-75
2023/05/22 12:02:31;;;;;;;18.73;12.20;;;20.20;99.90;;;;;;4944406;28;20062;-76
2023/05/22 12:04:57;;;;;;;21.98;12.82;;;20.30;99.90;;;;;;4943104;28;20128;-77
2023/05/22 12:07:27;;;;;;;19.95;12.05;;;20.40;99.90;;;;;;4946456;28;20126;-77
2023/05/22 12:09:57;;;;;;;20.98;12.88;;;20.60;99.90;;;;;;4947823;28;20412;-77
2023/05/22 12:12:24;;;;;;;22.65;14.52;;;20.60;99.90;;;;;;4946730;28;20075;-76
2023/05/22 12:14:50;;;;;;;20.58;14.68;;;20.70;99.90;;;;;;4947690;28;20046;-75
2023/05/22 12:17:16;;;;;;;24.40;15.55;;;20.80;99.90;;;;;;4930266;28;20381;-76
2023/05/22 12:19:43;;;;;;;24.45;14.10;;;20.70;99.90;;;;;;4946933;28;20092;-76
2023/05/22 12:22:10;;;;;;;18.80;13.32;;;20.80;99.90;;;;;;4945616;28;20063;-77
2023/05/22 12:24:40;;;;;;;23.73;15.05;;;20.80;99.90;;;;;;4962547;28;20198;-76
2023/05/22 12:27:10;;;;;;;21.45;14.82;;;20.80;99.90;;;;;;4946484;28;20047;-77
2023/05/22 12:29:36;;;;;;;21.75;15.30;;;20.70;99.90;;;;;;4947214;28;20512;-76
2023/05/22 12:32:03;;;;;;;24.27;15.43;;;20.70;99.90;;;;;;4945298;28;20162;-76
2023/05/22 12:34:36;;;;;;;21.48;15.38;;;20.70;99.90;;;;;;4946774;28;20058;-76